HTKJ

Kilimanjaro International Airport

Arusha, Tanzania
METAR HTKJ 201600Z 08008KT 9999 SCT027 23/12 Q1017 NOSIG
Observed Flight Rules
Aug-20 @ 16:00 UTC (24 minutes ago) Visual Flight Rules
Wind Visibility Clouds
80° at 8 knots 10,000+ meters
  • Scattered at 2,700' AGL
Temperatures Readings
Current 23°C / 73°F
Dewpoint 12°C / 54°F
Humidity 50%
Altimeter 30.03" Hg
Pressure 1017 hPa
Elevation 896
METAR HTKJ 201600Z 08008KT 9999 SCT027 23/12 Q1017 NOSIG
Observed Flight Rules
Aug-20 @ 16:00 UTC
(24 minutes ago)
VFR
Wind Visibility
80° at 8 knots 10,000+ meters
Clouds
  • Scattered at 2,700' AGL
Temperature Dewpoint
23°C / 73°F 12°C / 54°F
Humidity Altimeter Pressure
50% 30.03" Hg 1017 hPa